createdAt,value
2022-12-19T00:01:54.816Z,1.50
2022-12-19T00:04:21.917Z,1.50
2022-12-19T00:06:48.867Z,1.50
2022-12-19T00:09:15.813Z,1.50
2022-12-19T00:11:43.161Z,1.50
2022-12-19T00:14:11.917Z,1.50
2022-12-19T00:16:39.576Z,1.50
2022-12-19T00:19:06.987Z,1.40
2022-12-19T00:21:35.537Z,1.40
2022-12-19T00:24:10.454Z,1.40
2022-12-19T00:26:49.652Z,1.50
2022-12-19T00:29:16.813Z,1.50
2022-12-19T00:31:44.316Z,1.50
2022-12-19T00:34:11.824Z,1.50
2022-12-19T00:36:38.822Z,1.50
2022-12-19T00:39:08.319Z,1.50
2022-12-19T00:41:37.642Z,1.50
2022-12-19T00:44:12.189Z,1.40
2022-12-19T00:46:39.354Z,1.40
2022-12-19T00:49:06.819Z,1.40
2022-12-19T00:51:36.597Z,1.50
2022-12-19T00:54:06.754Z,1.40
2022-12-19T00:56:37.369Z,1.50
2022-12-19T00:59:05.714Z,1.50
2022-12-19T01:01:37.536Z,1.50
2022-12-19T01:06:53.356Z,1.50
2022-12-19T01:09:22.230Z,1.60
2022-12-19T01:12:07.986Z,1.60
2022-12-19T01:14:35.444Z,1.60
2022-12-19T01:17:02.482Z,1.60
2022-12-19T01:19:30.801Z,1.60
2022-12-19T01:21:59.607Z,1.60
2022-12-19T01:24:26.967Z,1.70
2022-12-19T01:26:53.917Z,1.70
2022-12-19T01:29:20.888Z,1.70
2022-12-19T01:31:48.211Z,1.70
2022-12-19T01:34:15.188Z,1.70
2022-12-19T01:36:42.094Z,1.70
2022-12-19T01:39:09.024Z,1.70
2022-12-19T01:41:35.976Z,1.80
2022-12-19T01:44:10.777Z,1.90
2022-12-19T01:46:42.413Z,1.90
2022-12-19T01:49:32.761Z,2.00
2022-12-19T01:52:06.551Z,2.00
2022-12-19T01:54:40.978Z,2.00
2022-12-19T01:57:12.249Z,2.10
2022-12-19T01:59:46.130Z,2.10
2022-12-19T02:02:48.539Z,2.10
2022-12-19T02:05:15.679Z,2.10
2022-12-19T02:07:44.385Z,2.20
2022-12-19T02:10:12.482Z,2.20
2022-12-19T02:12:43.299Z,2.30
2022-12-19T02:15:12.296Z,2.30
2022-12-19T02:18:07.264Z,2.30
2022-12-19T02:21:15.593Z,2.30
2022-12-19T02:24:29.667Z,2.40
2022-12-19T02:27:57.599Z,2.40
2022-12-19T02:31:17.731Z,2.50
2022-12-19T02:34:19.269Z,2.60
2022-12-19T02:37:17.969Z,2.70
2022-12-19T02:40:24.977Z,2.80
2022-12-19T02:42:58.750Z,2.80
2022-12-19T02:45:29.939Z,2.80
2022-12-19T02:48:08.395Z,2.90
2022-12-19T02:50:41.369Z,2.90
2022-12-19T02:53:11.255Z,2.90
2022-12-19T02:55:49.571Z,2.90
2022-12-19T02:58:41.314Z,3.00
2022-12-19T03:01:15.503Z,3.00
2022-12-19T03:03:56.444Z,3.00
2022-12-19T03:06:40.752Z,3.00
2022-12-19T03:09:41.037Z,2.90
2022-12-19T03:12:17.526Z,2.90
2022-12-19T03:14:47.208Z,2.90
2022-12-19T03:17:14.267Z,2.90
2022-12-19T03:19:42.369Z,2.90
2022-12-19T03:22:09.360Z,2.90
2022-12-19T03:24:36.326Z,3.00
2022-12-19T03:27:13.347Z,3.00
2022-12-19T03:30:06.566Z,3.10
2022-12-19T03:32:40.709Z,3.10
2022-12-19T03:35:22.205Z,3.10
2022-12-19T03:37:53.210Z,3.20
2022-12-19T03:40:23.878Z,3.20
2022-12-19T03:43:25.023Z,3.30
2022-12-19T03:46:18.952Z,3.30
2022-12-19T03:48:51.549Z,3.40
2022-12-19T03:51:39.166Z,3.40
2022-12-19T03:54:28.148Z,3.40
2022-12-19T03:57:14.038Z,3.50
2022-12-19T04:00:02.471Z,3.60
2022-12-19T04:02:30.548Z,3.60
2022-12-19T04:05:04.766Z,3.60
2022-12-19T04:07:34.875Z,3.60
2022-12-19T04:10:08.298Z,3.60
2022-12-19T04:12:45.762Z,3.60
2022-12-19T04:15:16.488Z,3.60
2022-12-19T04:18:02.588Z,3.70
2022-12-19T04:20:32.433Z,3.80
2022-12-19T04:23:11.664Z,3.90
2022-12-19T04:25:49.152Z,4.00
2022-12-19T04:28:26.957Z,4.00
2022-12-19T04:30:57.361Z,4.10
2022-12-19T04:33:25.161Z,4.10
2022-12-19T04:35:52.186Z,4.20
2022-12-19T04:38:25.768Z,4.20
2022-12-19T04:40:54.972Z,4.10
2022-12-19T04:43:21.934Z,4.10
2022-12-19T04:45:57.380Z,4.10
2022-12-19T04:48:25.106Z,4.20
2022-12-19T04:50:53.023Z,4.10
2022-12-19T04:53:20.217Z,4.10
2022-12-19T04:55:47.364Z,4.20
2022-12-19T04:58:21.702Z,4.20
2022-12-19T05:00:51.958Z,4.20
2022-12-19T05:03:18.960Z,4.20
2022-12-19T05:05:46.735Z,4.20
2022-12-19T05:08:13.842Z,4.30
2022-12-19T05:10:41.442Z,4.30
2022-12-19T05:13:09.348Z,4.40
2022-12-19T05:15:36.397Z,4.40
2022-12-19T05:18:04.434Z,4.50
2022-12-19T05:20:31.564Z,4.50
2022-12-19T05:23:02.957Z,4.50
2022-12-19T05:25:31.818Z,4.50
2022-12-19T05:27:58.679Z,4.60
2022-12-19T05:30:29.332Z,4.50
2022-12-19T05:32:56.468Z,4.60
2022-12-19T05:35:24.423Z,4.60
2022-12-19T05:37:51.704Z,4.60
2022-12-19T05:40:18.561Z,4.60
2022-12-19T05:42:45.886Z,4.70
2022-12-19T05:45:13.167Z,4.90
2022-12-19T05:47:40.263Z,5.00
2022-12-19T05:50:08.204Z,5.10
2022-12-19T05:52:35.146Z,5.20
2022-12-19T05:55:02.933Z,5.30
2022-12-19T05:57:29.976Z,5.40
2022-12-19T05:59:57.322Z,5.30
2022-12-19T06:02:25.085Z,5.40
2022-12-19T06:04:52.328Z,5.40
2022-12-19T06:07:21.202Z,5.50
2022-12-19T06:09:48.766Z,5.70
2022-12-19T06:12:15.710Z,5.70
2022-12-19T06:14:42.602Z,5.70
2022-12-19T06:17:09.593Z,5.80
2022-12-19T06:19:36.506Z,5.80
2022-12-19T06:22:03.439Z,5.80
2022-12-19T06:24:32.524Z,5.80
2022-12-19T06:26:59.450Z,5.80
2022-12-19T06:29:26.425Z,5.80
2022-12-19T06:31:56.137Z,5.80
2022-12-19T06:34:54.910Z,5.80
2022-12-19T06:37:10.365Z,5.80
2022-12-19T06:39:37.471Z,5.80
2022-12-19T06:42:22.965Z,5.80
2022-12-19T06:44:51.619Z,5.80
2022-12-19T06:47:19.656Z,5.80
2022-12-19T06:49:50.309Z,5.80
2022-12-19T06:52:18.054Z,5.80
2022-12-19T06:54:45.173Z,5.90
2022-12-19T06:57:12.135Z,6.00
2022-12-19T06:59:39.035Z,6.00
2022-12-19T07:02:30.122Z,6.00
2022-12-19T07:05:04.225Z,6.00
2022-12-19T07:07:31.534Z,6.00
2022-12-19T07:09:58.427Z,6.00
2022-12-19T07:12:26.703Z,6.00
2022-12-19T07:14:53.938Z,6.00
2022-12-19T07:17:22.764Z,5.90
2022-12-19T07:19:58.528Z,5.90
2022-12-19T07:22:32.491Z,6.00
2022-12-19T07:25:02.505Z,6.00
2022-12-19T07:27:35.419Z,6.00
2022-12-19T07:30:02.885Z,6.00
2022-12-19T07:32:32.892Z,6.00
2022-12-19T07:35:00.179Z,6.10
2022-12-19T07:37:27.264Z,6.10
2022-12-19T07:39:54.221Z,6.10
2022-12-19T07:42:21.500Z,6.20
2022-12-19T07:44:48.447Z,6.30
2022-12-19T07:47:15.460Z,6.30
2022-12-19T07:49:42.445Z,6.30
2022-12-19T07:52:09.492Z,6.30
2022-12-19T07:54:36.451Z,6.30
2022-12-19T07:57:03.921Z,6.30
2022-12-19T07:59:35.732Z,6.30
2022-12-19T08:02:06.414Z,6.40
2022-12-19T08:04:35.298Z,6.50
2022-12-19T08:07:05.323Z,6.50
2022-12-19T08:09:32.341Z,6.50
2022-12-19T08:11:59.641Z,6.60
2022-12-19T08:14:26.548Z,6.60
2022-12-19T08:17:19.725Z,6.70
2022-12-19T08:19:40.738Z,6.70
2022-12-19T08:22:07.870Z,6.80
2022-12-19T08:24:34.851Z,6.80
2022-12-19T08:27:01.992Z,6.90
2022-12-19T08:29:29.087Z,6.90
2022-12-19T08:31:56.321Z,6.90
2022-12-19T08:34:23.368Z,6.90
2022-12-19T08:36:50.381Z,7.00
2022-12-19T08:39:17.488Z,7.00
2022-12-19T08:41:44.861Z,7.00
2022-12-19T08:44:12.760Z,7.00
2022-12-19T08:46:42.462Z,7.10
2022-12-19T08:49:12.044Z,7.10
2022-12-19T08:51:38.921Z,7.10
2022-12-19T08:54:07.962Z,7.20
2022-12-19T08:56:46.471Z,7.20
2022-12-19T08:59:24.418Z,7.20
2022-12-19T09:01:59.760Z,7.30
2022-12-19T09:05:28.871Z,7.30
2022-12-19T09:07:15.676Z,7.40
2022-12-19T09:09:43.842Z,7.40
2022-12-19T09:12:11.959Z,7.40
2022-12-19T09:14:38.899Z,7.40
2022-12-19T09:17:09.607Z,7.40
2022-12-19T09:19:36.591Z,7.40
2022-12-19T09:22:03.989Z,7.40
2022-12-19T09:24:30.940Z,7.40
2022-12-19T09:26:58.338Z,7.50
2022-12-19T09:29:25.468Z,7.60
2022-12-19T09:31:56.311Z,7.60
2022-12-19T09:34:37.949Z,7.50
2022-12-19T09:37:16.258Z,7.60
2022-12-19T09:39:45.905Z,7.60
2022-12-19T09:42:48.098Z,7.60
2022-12-19T09:45:44.252Z,7.70
2022-12-19T09:48:24.592Z,7.70
2022-12-19T09:51:13.775Z,7.70
2022-12-19T09:53:53.533Z,7.80
2022-12-19T09:56:24.011Z,7.90
2022-12-19T09:58:58.477Z,7.90
2022-12-19T10:01:32.674Z,7.90
2022-12-19T10:04:10.704Z,8.00
2022-12-19T10:07:07.838Z,8.00
2022-12-19T10:11:24.820Z,8.00
2022-12-19T10:13:13.525Z,8.00
2022-12-19T10:15:59.822Z,8.10
2022-12-19T10:18:56.083Z,8.10
2022-12-19T10:22:18.892Z,8.10
2022-12-19T10:25:08.233Z,8.00
2022-12-19T10:27:59.505Z,8.00
2022-12-19T10:30:32.796Z,8.10
2022-12-19T10:33:23.783Z,8.20
2022-12-19T10:36:01.640Z,8.20
2022-12-19T10:38:54.224Z,8.30
2022-12-19T10:41:27.447Z,8.40
2022-12-19T10:44:22.278Z,8.40
2022-12-19T10:46:50.823Z,8.60
2022-12-19T10:49:23.558Z,8.60
2022-12-19T10:52:00.774Z,8.70
2022-12-19T10:54:42.735Z,8.80
2022-12-19T10:57:25.737Z,8.80
2022-12-19T10:59:59.504Z,8.80
2022-12-19T11:02:44.812Z,8.90
2022-12-19T11:05:41.427Z,9.00
2022-12-19T11:08:08.317Z,9.00
2022-12-19T11:12:01.132Z,9.00
2022-12-19T11:18:01.560Z,9.00
2022-12-19T11:20:46.819Z,8.90
2022-12-19T11:29:32.624Z,8.90
2022-12-19T11:29:43.949Z,8.90
2022-12-19T11:30:43.750Z,8.90
2022-12-19T11:30:48.854Z,8.80
2022-12-19T11:34:23.699Z,8.90
2022-12-19T11:37:17.651Z,8.80
2022-12-19T11:39:57.558Z,8.80
2022-12-19T11:42:31.575Z,8.80
2022-12-19T11:45:39.408Z,8.80
2022-12-19T11:48:26.287Z,8.80
2022-12-19T11:51:21.254Z,8.80
2022-12-19T11:54:07.852Z,8.80
2022-12-19T11:56:35.563Z,8.80
2022-12-19T11:59:20.731Z,8.80
2022-12-19T12:02:32.934Z,8.80
2022-12-19T12:05:27.310Z,8.80
2022-12-19T12:12:00.325Z,8.80
2022-12-19T12:15:47.255Z,8.90
2022-12-19T12:26:38.724Z,8.90
2022-12-19T12:31:19.170Z,8.90
2022-12-19T12:31:31.253Z,8.80
2022-12-19T12:31:39.469Z,8.90
2022-12-19T12:31:48.867Z,8.90
2022-12-19T12:35:51.820Z,8.90
2022-12-19T12:37:52.455Z,8.90
2022-12-19T12:38:43.932Z,8.90
2022-12-19T12:42:01.838Z,9.00
2022-12-19T12:44:33.421Z,9.00
2022-12-19T12:47:22.848Z,9.00
2022-12-19T12:50:00.515Z,9.00
2022-12-19T12:52:38.466Z,9.00
2022-12-19T12:55:14.552Z,9.00
2022-12-19T12:57:41.655Z,9.10
2022-12-19T13:00:21.031Z,9.10
2022-12-19T13:03:05.999Z,9.10
2022-12-19T13:05:53.336Z,9.20
2022-12-19T13:08:46.101Z,9.30
2022-12-19T13:12:04.146Z,9.30
2022-12-19T13:15:16.359Z,9.30
2022-12-19T13:18:08.830Z,9.40
2022-12-19T13:20:49.308Z,9.40
2022-12-19T13:23:33.449Z,9.40
2022-12-19T13:26:00.556Z,9.40
2022-12-19T13:28:27.479Z,9.40
2022-12-19T13:31:26.920Z,9.50
2022-12-19T13:34:18.667Z,9.60
2022-12-19T13:39:51.156Z,9.60
2022-12-19T13:40:11.289Z,9.60
2022-12-19T13:43:10.081Z,9.50
2022-12-19T13:45:41.628Z,9.60
2022-12-19T13:48:16.629Z,9.60
2022-12-19T13:50:47.750Z,9.60
2022-12-19T13:53:18.641Z,9.70
2022-12-19T13:55:46.060Z,9.60
2022-12-19T13:58:58.839Z,9.60
2022-12-19T14:01:36.058Z,9.60
2022-12-19T14:04:27.428Z,9.60
2022-12-19T14:07:06.005Z,9.60
2022-12-19T14:11:24.193Z,9.60
2022-12-19T14:13:42.871Z,9.60
2022-12-19T14:15:37.471Z,9.60
2022-12-19T14:18:44.819Z,9.60
2022-12-19T14:22:08.919Z,9.60
2022-12-19T14:24:21.900Z,9.70
2022-12-19T14:28:20.205Z,9.70
2022-12-19T14:30:30.881Z,9.70
2022-12-19T14:33:47.019Z,9.60
2022-12-19T14:36:09.593Z,9.50
2022-12-19T14:39:19.620Z,9.60
2022-12-19T14:42:02.452Z,9.50
2022-12-19T14:52:11.702Z,9.50
2022-12-19T14:54:05.221Z,9.40
2022-12-19T14:54:31.359Z,9.30
2022-12-19T14:57:25.509Z,9.30
2022-12-19T15:01:07.802Z,9.20
2022-12-19T15:03:29.436Z,9.20
2022-12-19T15:07:05.316Z,9.10
2022-12-19T15:11:03.854Z,9.00
2022-12-19T15:14:47.699Z,8.90
2022-12-19T15:15:39.047Z,8.90
2022-12-19T15:18:23.344Z,8.80
2022-12-19T15:20:56.017Z,8.80
2022-12-19T15:23:24.647Z,8.80
2022-12-19T15:26:08.797Z,8.80
2022-12-19T15:28:46.826Z,8.80
2022-12-19T15:31:46.332Z,8.90
2022-12-19T15:34:50.453Z,8.80
2022-12-19T15:37:18.423Z,8.80
2022-12-19T15:39:45.769Z,8.80
2022-12-19T15:42:24.970Z,8.80
2022-12-19T15:44:53.632Z,8.70
2022-12-19T15:47:31.089Z,8.80
2022-12-19T15:50:02.703Z,8.70
2022-12-19T15:52:30.825Z,8.80
2022-12-19T15:54:57.944Z,8.80
2022-12-19T15:57:43.679Z,8.80
2022-12-19T16:00:26.142Z,8.80
2022-12-19T16:03:23.815Z,8.80
2022-12-19T16:05:41.814Z,8.70
2022-12-19T16:08:17.418Z,8.70
2022-12-19T16:10:46.507Z,8.60
2022-12-19T16:13:23.824Z,8.50
2022-12-19T16:15:51.879Z,8.40
2022-12-19T16:18:19.932Z,8.40
2022-12-19T16:20:47.917Z,8.40
2022-12-19T16:23:15.616Z,8.40
2022-12-19T16:25:48.504Z,8.40
2022-12-19T16:28:30.620Z,8.40
2022-12-19T16:30:59.294Z,8.40
2022-12-19T16:33:29.250Z,8.30
2022-12-19T16:36:06.262Z,8.30
2022-12-19T16:38:34.378Z,8.20
2022-12-19T16:41:04.589Z,8.20
2022-12-19T16:43:35.797Z,8.20
2022-12-19T16:46:05.950Z,8.30
2022-12-19T16:48:35.655Z,8.30
2022-12-19T16:51:02.648Z,8.30
2022-12-19T16:53:29.608Z,8.30
2022-12-19T16:55:57.275Z,8.30
2022-12-19T16:58:27.447Z,8.40
2022-12-19T17:00:55.283Z,8.40
2022-12-19T17:03:41.614Z,8.40
2022-12-19T17:06:19.587Z,8.40
2022-12-19T17:08:48.446Z,8.40
2022-12-19T17:11:29.159Z,8.40
2022-12-19T17:14:04.871Z,8.50
2022-12-19T17:16:32.143Z,8.50
2022-12-19T17:18:59.490Z,8.60
2022-12-19T17:21:26.544Z,8.70
2022-12-19T17:23:53.447Z,8.70
2022-12-19T17:26:20.433Z,8.70
2022-12-19T17:28:48.419Z,8.70
2022-12-19T17:31:30.131Z,8.70
2022-12-19T17:33:58.508Z,8.80
2022-12-19T17:36:36.621Z,8.90
2022-12-19T17:39:22.899Z,9.00
2022-12-19T17:41:50.751Z,9.10
2022-12-19T17:44:17.983Z,9.10
2022-12-19T17:46:46.035Z,9.20
2022-12-19T17:49:28.416Z,9.20
2022-12-19T17:51:56.241Z,9.20
2022-12-19T17:54:23.677Z,9.20
2022-12-19T17:56:51.198Z,9.30
2022-12-19T17:59:18.460Z,9.30
2022-12-19T18:01:48.778Z,9.40
2022-12-19T18:04:20.252Z,9.50
2022-12-19T18:06:47.744Z,9.40
2022-12-19T18:09:23.176Z,9.40
2022-12-19T18:11:51.038Z,9.50
2022-12-19T18:14:18.935Z,9.50
2022-12-19T18:16:47.024Z,9.60
2022-12-19T18:19:25.449Z,9.60
2022-12-19T18:21:52.344Z,9.60
2022-12-19T18:24:19.255Z,9.60
2022-12-19T18:26:46.205Z,9.60
2022-12-19T18:29:13.763Z,9.60
2022-12-19T18:31:48.420Z,9.60
2022-12-19T18:34:23.568Z,9.60
2022-12-19T18:36:51.584Z,9.50
2022-12-19T18:39:27.158Z,9.60
2022-12-19T18:41:57.302Z,9.60
2022-12-19T18:44:24.162Z,9.60
2022-12-19T18:46:51.862Z,9.60
2022-12-19T18:49:19.341Z,9.60
2022-12-19T18:51:46.853Z,9.60
2022-12-19T18:54:21.863Z,9.60
2022-12-19T18:56:49.141Z,9.60
2022-12-19T18:59:16.156Z,9.60
2022-12-19T19:01:46.561Z,9.60
2022-12-19T19:04:18.137Z,9.50
2022-12-19T19:06:51.450Z,9.40
2022-12-19T19:09:20.415Z,9.30
2022-12-19T19:11:49.947Z,9.20
2022-12-19T19:14:17.252Z,9.10
2022-12-19T19:16:44.727Z,9.10
2022-12-19T19:19:16.492Z,9.10
2022-12-19T19:21:43.481Z,9.20
2022-12-19T19:24:18.035Z,9.30
2022-12-19T19:26:45.011Z,9.30
2022-12-19T19:29:13.666Z,9.30
2022-12-19T19:31:44.807Z,9.40
2022-12-19T19:34:18.385Z,9.50
2022-12-19T19:36:49.729Z,9.50
2022-12-19T19:39:17.658Z,9.50
2022-12-19T19:41:44.612Z,9.50
2022-12-19T19:44:12.867Z,9.50
2022-12-19T19:46:39.933Z,9.60
2022-12-19T19:49:06.913Z,9.60
2022-12-19T19:51:33.883Z,9.60
2022-12-19T19:54:01.025Z,9.60
2022-12-19T19:56:29.203Z,9.60
2022-12-19T19:58:59.521Z,9.60
2022-12-19T20:01:27.090Z,9.50
2022-12-19T20:03:54.222Z,9.50
2022-12-19T20:06:21.604Z,9.40
2022-12-19T20:08:49.339Z,9.40
2022-12-19T20:11:17.011Z,9.40
2022-12-19T20:13:44.198Z,9.50
2022-12-19T20:16:15.824Z,9.50
2022-12-19T20:18:47.637Z,9.50
2022-12-19T20:21:14.931Z,9.40
2022-12-19T20:23:43.269Z,9.50
2022-12-19T20:26:12.096Z,9.50
2022-12-19T20:28:47.673Z,9.50
2022-12-19T20:31:17.000Z,9.60
2022-12-19T20:33:43.987Z,9.50
2022-12-19T20:36:12.884Z,9.60
2022-12-19T20:38:40.116Z,9.60
2022-12-19T20:41:07.601Z,9.80
2022-12-19T20:43:34.995Z,9.80
2022-12-19T20:46:03.857Z,9.80
2022-12-19T20:48:31.061Z,9.90
2022-12-19T20:51:04.680Z,10.00
2022-12-19T20:53:33.922Z,10.00
2022-12-19T20:56:02.250Z,10.10
2022-12-19T20:58:30.539Z,10.10
2022-12-19T21:01:03.035Z,10.00
2022-12-19T21:03:32.647Z,10.00
2022-12-19T21:06:00.286Z,10.00
2022-12-19T21:08:27.844Z,10.00
2022-12-19T21:10:55.380Z,10.00
2022-12-19T21:13:23.611Z,10.00
2022-12-19T21:15:55.277Z,10.00
2022-12-19T21:18:22.807Z,9.90
2022-12-19T21:20:56.490Z,9.90
2022-12-19T21:23:25.380Z,10.00
2022-12-19T21:25:53.078Z,10.00
2022-12-19T21:28:20.122Z,10.00
2022-12-19T21:30:47.457Z,10.00
2022-12-19T21:33:14.564Z,10.00
2022-12-19T21:35:41.498Z,10.00
2022-12-19T21:38:10.006Z,10.00
2022-12-19T21:40:38.271Z,10.00
2022-12-19T21:43:11.384Z,10.00
2022-12-19T21:45:40.609Z,10.00
2022-12-19T21:48:07.499Z,10.00
2022-12-19T21:50:34.542Z,10.00
2022-12-19T21:53:01.763Z,10.10
2022-12-19T21:55:28.770Z,10.20
2022-12-19T21:57:55.811Z,10.20
2022-12-19T22:00:22.961Z,10.30
2022-12-19T22:03:12.751Z,10.30
2022-12-19T22:05:37.163Z,10.50
2022-12-19T22:08:04.356Z,10.60
2022-12-19T22:10:34.111Z,10.60
2022-12-19T22:13:01.004Z,10.70
2022-12-19T22:15:29.329Z,10.70
2022-12-19T22:17:56.173Z,10.70
2022-12-19T22:20:23.158Z,10.70
2022-12-19T22:22:50.085Z,10.80
2022-12-19T22:25:17.600Z,10.90
2022-12-19T22:27:44.740Z,11.00
2022-12-19T22:30:12.234Z,10.90
2022-12-19T22:32:39.378Z,10.90
2022-12-19T22:35:07.043Z,11.00
2022-12-19T22:37:34.111Z,10.90
2022-12-19T22:40:04.278Z,10.90
2022-12-19T22:42:34.179Z,10.90
2022-12-19T22:45:01.322Z,10.90
2022-12-19T22:47:28.736Z,10.90
2022-12-19T22:49:56.349Z,10.90
2022-12-19T22:52:23.937Z,10.90
2022-12-19T22:54:50.943Z,10.90
2022-12-19T22:57:17.907Z,10.90
2022-12-19T22:59:45.075Z,10.70
2022-12-19T23:02:12.131Z,10.60
2022-12-19T23:04:40.818Z,10.50
2022-12-19T23:07:07.940Z,10.50
2022-12-19T23:09:36.245Z,10.50
2022-12-19T23:12:03.407Z,10.40
2022-12-19T23:14:32.590Z,10.40
2022-12-19T23:16:59.569Z,10.40
2022-12-19T23:19:26.980Z,10.40
2022-12-19T23:21:53.854Z,10.40
2022-12-19T23:24:20.794Z,10.40
2022-12-19T23:26:48.731Z,10.40
2022-12-19T23:29:16.304Z,10.30
2022-12-19T23:31:45.598Z,10.30
2022-12-19T23:34:13.285Z,10.30
2022-12-19T23:39:27.445Z,10.40
2022-12-19T23:41:54.433Z,10.50
2022-12-19T23:44:21.525Z,10.50
2022-12-19T23:46:48.480Z,10.60
2022-12-19T23:49:15.844Z,10.70
2022-12-19T23:51:43.149Z,10.70
2022-12-19T23:54:10.287Z,10.70
2022-12-19T23:56:37.495Z,10.80
2022-12-19T23:59:04.645Z,10.80
